Time;durP1;ratioP1;P1;durP2;ratioP2;P2;SDS_P1;SDS_P2;PMS_P1;PMS_P2;Temp;Humidity;BMP_temperature;BMP_pressure;BME280_temperature;BME280_humidity;BME280_pressure;Samples;Min_cycle;Max_cycle;Signal;HPM_P1;HPM_P2
2022/05/18 00:00:27;;;;;;;;;;;;;;;22.40;33.33;102708.41;2051695;29;805;-53
2022/05/18 00:01:27;;;;;;;;;;;;;;;22.40;33.43;102713.81;2051759;28;824;-53
2022/05/18 00:02:27;;;;;;;;;;;;;;;22.41;33.91;102716.50;2051728;29;1034;-54
2022/05/18 00:03:30;;;;;;;;;;;;;;;22.40;34.11;102714.72;2051747;29;840;-53
2022/05/18 00:04:30;;;;;;;;;;;;;;;22.42;33.26;102717.38;2051591;28;1864;-54
2022/05/18 00:05:34;;;;;;;;;;;;;;;22.40;33.36;102713.81;2051702;29;769;-54
2022/05/18 00:06:34;;;;;;;;;;;;;;;22.38;33.48;102710.22;2051704;28;954;-54
2022/05/18 00:07:34;;;;;;;;;;;;;;;22.38;34.16;102710.22;2051672;29;833;-53
2022/05/18 00:08:38;;;;;;;;;;;;;;;22.37;33.78;102709.34;2051661;29;860;-53
2022/05/18 00:09:38;;;;;;;;;;;;;;;22.38;33.31;102712.94;2051599;29;752;-54
2022/05/18 00:10:40;;;;;;;;;;;;;;;22.37;34.06;102712.06;2051552;29;1062;-54
2022/05/18 00:11:40;;;;;;;;;;;;;;;22.36;34.18;102707.56;2051654;28;880;-54
2022/05/18 00:12:45;;;;;;;;;;;;;;;22.34;33.71;102710.31;2051624;29;1023;-54
2022/05/18 00:13:46;;;;;;;;;;;;;;;22.35;33.42;102711.19;2051582;29;789;-54
2022/05/18 00:14:46;;;;;;;;;;;;;;;22.35;33.79;102712.09;2051697;28;986;-54
2022/05/18 00:15:47;;;;;;;;;;;;;;;22.35;33.52;102714.78;2051591;29;758;-54
2022/05/18 00:16:47;;;;;;;;;;;;;;;22.35;33.83;102712.09;2051347;28;1037;-54
2022/05/18 00:17:47;;;;;;;;;;;;;;;22.35;33.54;102706.69;2050815;29;1944;-54
2022/05/18 00:18:48;;;;;;;;;;;;;;;22.35;33.42;102704.00;2050980;29;1045;-54
2022/05/18 00:19:48;;;;;;;;;;;;;;;22.34;34.19;102709.38;2051614;29;1054;-53
2022/05/18 00:20:48;;;;;;;;;;;;;;;22.33;33.57;102708.50;2051567;29;777;-54
2022/05/18 00:21:48;;;;;;;;;;;;;;;22.32;33.55;102703.13;2051537;29;865;-53
2022/05/18 00:22:54;;;;;;;;;;;;;;;22.31;33.50;102707.63;2051630;29;984;-54
2022/05/18 00:23:54;;;;;;;;;;;;;;;22.32;33.52;102709.44;2051475;28;1457;-54
2022/05/18 00:24:55;;;;;;;;;;;;;;;22.32;33.67;102709.44;2051619;29;774;-54
2022/05/18 00:25:55;;;;;;;;;;;;;;;22.31;34.47;102710.34;2051483;29;809;-54
2022/05/18 00:26:56;;;;;;;;;;;;;;;22.32;34.34;102708.50;2051337;28;1075;-54
2022/05/18 00:27:56;;;;;;;;;;;;;;;22.32;33.83;102706.72;2051521;29;863;-54
2022/05/18 00:28:56;;;;;;;;;;;;;;;22.30;33.64;102703.16;2051518;29;987;-53
2022/05/18 00:29:56;;;;;;;;;;;;;;;22.32;34.33;102703.13;2051647;29;768;-54
2022/05/18 00:30:57;;;;;;;;;;;;;;;22.32;33.59;102706.72;2051440;29;892;-54
2022/05/18 00:31:57;;;;;;;;;;;;;;;22.31;33.97;102706.72;2051520;28;938;-54
2022/05/18 00:33:03;;;;;;;;;;;;;;;22.30;33.59;102711.25;2051630;28;737;-53
2022/05/18 00:34:03;;;;;;;;;;;;;;;22.31;34.47;102704.94;2051493;28;769;-54
2022/05/18 00:35:03;;;;;;;;;;;;;;;22.32;34.37;102717.53;2051444;29;817;-53
2022/05/18 00:36:04;;;;;;;;;;;;;;;22.32;33.80;102713.91;2051480;28;954;-53
2022/05/18 00:37:04;;;;;;;;;;;;;;;22.31;34.15;102710.34;2051390;28;1200;-53
2022/05/18 00:38:05;;;;;;;;;;;;;;;22.33;33.61;102713.91;2051335;29;1915;-53
2022/05/18 00:39:05;;;;;;;;;;;;;;;22.31;33.87;102710.34;2051441;28;805;-54
2022/05/18 00:40:06;;;;;;;;;;;;;;;22.32;33.60;102714.81;2051428;29;784;-54
2022/05/18 00:41:06;;;;;;;;;;;;;;;22.29;33.69;102717.56;2050728;29;1273;-53
2022/05/18 00:42:16;;;;;;;;;;;;;;;22.31;33.74;102712.13;2050838;29;1029;-53
2022/05/18 00:43:19;;;;;;;;;;;;;;;22.32;33.62;102712.13;2051424;28;978;-53
2022/05/18 00:44:19;;;;;;;;;;;;;;;22.30;33.85;102711.25;2051420;28;757;-54
2022/05/18 00:45:20;;;;;;;;;;;;;;;22.30;33.91;102711.25;2051337;29;821;-54
2022/05/18 00:46:21;;;;;;;;;;;;;;;22.29;34.50;102709.47;2051441;28;883;-54
2022/05/18 00:47:22;;;;;;;;;;;;;;;22.29;34.38;102706.75;2051377;28;785;-54
2022/05/18 00:48:22;;;;;;;;;;;;;;;22.30;33.81;102703.16;2051416;28;765;-54
2022/05/18 00:49:22;;;;;;;;;;;;;;;22.30;33.99;102713.94;2051368;29;1038;-54
2022/05/18 00:50:28;;;;;;;;;;;;;;;22.28;34.62;102704.97;2051320;29;746;-53
2022/05/18 00:51:40;;;;;;;;;;;;;;;22.28;33.88;102702.28;2051346;28;1050;-53
2022/05/18 00:52:44;;;;;;;;;;;;;;;22.27;33.91;102708.59;2051353;28;809;-54
2022/05/18 00:53:59;;;;;;;;;;;;;;;22.28;33.74;102710.38;2051311;28;1029;-54
2022/05/18 00:55:00;;;;;;;;;;;;;;;22.29;33.77;102705.84;2051398;28;966;-54
2022/05/18 00:56:03;;;;;;;;;;;;;;;22.27;34.55;102705.88;2051323;28;1058;-54
2022/05/18 00:57:13;;;;;;;;;;;;;;;22.27;33.83;102702.28;2050611;29;1481;-54
2022/05/18 00:58:13;;;;;;;;;;;;;;;22.28;33.85;102698.66;2051835;28;963;-53
2022/05/18 00:59:17;;;;;;;;;;;;;;;22.26;34.55;102696.00;2058728;28;840;-54
2022/05/18 01:00:19;;;;;;;;;;;;;;;22.28;34.55;102699.56;2051278;28;880;-54
2022/05/18 01:01:19;;;;;;;;;;;;;;;22.28;33.79;102699.56;2051288;28;863;-54
2022/05/18 01:02:21;;;;;;;;;;;;;;;22.28;33.91;102701.34;2051291;28;908;-54
2022/05/18 01:03:26;;;;;;;;;;;;;;;22.28;33.97;102693.25;2051285;28;837;-54
2022/05/18 01:04:26;;;;;;;;;;;;;;;22.27;33.79;102696.88;2051246;28;974;-53
2022/05/18 01:05:29;;;;;;;;;;;;;;;22.29;34.33;102695.03;2051240;28;1030;-54
2022/05/18 01:06:34;;;;;;;;;;;;;;;22.28;34.64;102693.25;2051288;28;804;-54
2022/05/18 01:07:38;;;;;;;;;;;;;;;22.26;34.21;102696.00;2051320;28;777;-53
2022/05/18 01:08:44;;;;;;;;;;;;;;;22.28;34.68;102702.28;2051231;28;904;-54
2022/05/18 01:09:45;;;;;;;;;;;;;;;22.29;33.86;102697.75;2051143;29;967;-53
2022/05/18 01:10:45;;;;;;;;;;;;;;;22.30;34.54;102699.53;2051219;28;958;-54
2022/05/18 01:11:45;;;;;;;;;;;;;;;22.29;34.59;102697.75;2051225;29;836;-54
2022/05/18 01:12:47;;;;;;;;;;;;;;;22.28;33.93;102694.16;2051128;29;812;-54
2022/05/18 01:13:48;;;;;;;;;;;;;;;22.28;33.93;102688.78;2051194;29;871;-53
2022/05/18 01:14:50;;;;;;;;;;;;;;;22.27;33.82;102692.38;2051269;28;683;-54
2022/05/18 01:15:50;;;;;;;;;;;;;;;22.26;33.85;102696.00;2051145;28;1053;-54
2022/05/18 01:16:51;;;;;;;;;;;;;;;22.26;34.26;102689.69;2051213;29;1156;-54
2022/05/18 01:17:54;;;;;;;;;;;;;;;22.24;33.98;102689.72;2051072;28;1898;-54
2022/05/18 01:18:55;;;;;;;;;;;;;;;22.25;34.00;102693.28;2051135;28;784;-54
2022/05/18 01:19:57;;;;;;;;;;;;;;;22.25;34.80;102694.22;2051092;28;856;-54
2022/05/18 01:20:57;;;;;;;;;;;;;;;22.25;34.13;102690.59;2051294;28;888;-54
2022/05/18 01:22:04;;;;;;;;;;;;;;;22.25;34.68;102693.28;2051102;29;1122;-54
2022/05/18 01:23:20;;;;;;;;;;;;;;;22.26;33.91;102689.69;2051094;28;974;-53
2022/05/18 01:24:31;;;;;;;;;;;;;;;22.25;34.14;102691.50;2051153;28;986;-54
2022/05/18 01:25:56;;;;;;;;;;;;;;;22.24;34.43;102686.09;2051096;28;979;-54
2022/05/18 01:26:56;;;;;;;;;;;;;;;22.24;34.32;102692.41;2045790;28;1280;-53
2022/05/18 01:27:57;;;;;;;;;;;;;;;22.23;34.50;102695.13;2050922;28;828;-54
2022/05/18 01:28:58;;;;;;;;;;;;;;;22.25;33.94;102693.28;2050564;28;789;-53
2022/05/18 01:29:59;;;;;;;;;;;;;;;22.24;34.15;102689.72;2051048;28;860;-54
2022/05/18 01:30:59;;;;;;;;;;;;;;;22.25;33.97;102688.81;2051049;28;792;-53
2022/05/18 01:32:01;;;;;;;;;;;;;;;22.25;34.07;102688.81;2051036;29;788;-54
2022/05/18 01:33:04;;;;;;;;;;;;;;;22.23;34.22;102685.22;2051007;28;963;-53
2022/05/18 01:34:04;;;;;;;;;;;;;;;22.24;34.19;102692.41;2051051;28;966;-53
2022/05/18 01:35:05;;;;;;;;;;;;;;;22.26;34.54;102686.97;2050960;29;808;-54
2022/05/18 01:36:05;;;;;;;;;;;;;;;22.26;34.54;102689.69;2050940;28;1342;-54
2022/05/18 01:37:05;;;;;;;;;;;;;;;22.25;33.91;102683.41;2050326;29;954;-54
2022/05/18 01:38:06;;;;;;;;;;;;;;;22.27;34.32;102686.06;2050301;29;1973;-53
2022/05/18 01:39:08;;;;;;;;;;;;;;;22.27;34.13;102689.69;2051041;28;796;-53
2022/05/18 01:40:20;;;;;;;;;;;;;;;22.25;33.93;102691.50;2050957;28;974;-53
2022/05/18 01:41:21;;;;;;;;;;;;;;;22.24;34.27;102687.00;2051041;28;982;-54
2022/05/18 01:42:28;;;;;;;;;;;;;;;22.24;33.97;102681.63;2050328;29;797;-54
2022/05/18 01:43:38;;;;;;;;;;;;;;;22.23;33.93;102679.81;2050357;29;1215;-54
2022/05/18 01:44:40;;;;;;;;;;;;;;;22.22;34.16;102678.03;2050408;29;1022;-54
2022/05/18 01:45:41;;;;;;;;;;;;;;;22.24;34.14;102678.91;2050925;28;827;-53
2022/05/18 01:46:41;;;;;;;;;;;;;;;22.25;34.74;102688.81;2050933;29;809;-55
2022/05/18 01:47:41;;;;;;;;;;;;;;;22.26;33.98;102679.78;2050898;29;875;-53
2022/05/18 01:48:45;;;;;;;;;;;;;;;22.26;34.13;102679.78;2050948;28;974;-54
2022/05/18 01:49:46;;;;;;;;;;;;;;;22.27;34.76;102669.88;2050921;28;847;-55
2022/05/18 01:50:47;;;;;;;;;;;;;;;22.25;34.48;102669.91;2050883;28;918;-54
2022/05/18 01:51:49;;;;;;;;;;;;;;;22.25;34.58;102677.09;2050896;28;780;-54
2022/05/18 01:52:49;;;;;;;;;;;;;;;22.23;34.05;102669.03;2050189;29;813;-54
2022/05/18 01:53:49;;;;;;;;;;;;;;;22.25;34.40;102669.00;2050310;29;838;-54
2022/05/18 01:54:49;;;;;;;;;;;;;;;22.24;34.42;102670.81;2050825;29;975;-54
2022/05/18 01:55:50;;;;;;;;;;;;;;;22.25;33.97;102672.59;2050852;29;772;-54
2022/05/18 01:56:50;;;;;;;;;;;;;;;22.26;34.13;102670.78;2050866;29;963;-54
2022/05/18 01:57:50;;;;;;;;;;;;;;;22.26;34.18;102674.41;2050710;29;1879;-54
2022/05/18 01:58:50;;;;;;;;;;;;;;;22.26;34.19;102671.69;2050197;29;920;-54
2022/05/18 01:59:51;;;;;;;;;;;;;;;22.26;33.87;102670.78;2050224;29;1026;-54
2022/05/18 02:00:51;;;;;;;;;;;;;;;22.25;34.22;102669.00;2050811;29;821;-54
2022/05/18 02:01:51;;;;;;;;;;;;;;;22.24;34.72;102659.09;2050864;28;1018;-53
2022/05/18 02:02:52;;;;;;;;;;;;;;;22.25;33.92;102661.81;2050763;29;816;-54
2022/05/18 02:03:53;;;;;;;;;;;;;;;22.25;33.99;102667.22;2050878;29;773;-54
2022/05/18 02:04:53;;;;;;;;;;;;;;;22.25;34.36;102661.81;2050782;29;785;-54
2022/05/18 02:05:53;;;;;;;;;;;;;;;22.26;33.97;102657.28;2050083;29;658;-54
2022/05/18 02:06:54;;;;;;;;;;;;;;;22.25;33.92;102658.19;2050199;29;800;-54
2022/05/18 02:07:57;;;;;;;;;;;;;;;22.26;33.93;102660.91;2050782;29;836;-54
2022/05/18 02:08:58;;;;;;;;;;;;;;;22.25;33.90;102651.00;2050803;28;785;-54
2022/05/18 02:09:58;;;;;;;;;;;;;;;22.24;34.82;102657.31;2050732;29;789;-53
2022/05/18 02:10:58;;;;;;;;;;;;;;;22.23;34.03;102663.63;2050748;29;761;-53
2022/05/18 02:11:58;;;;;;;;;;;;;;;22.23;34.24;102662.72;2050705;29;959;-54
2022/05/18 02:12:59;;;;;;;;;;;;;;;22.24;34.08;102665.41;2050698;29;1498;-54
2022/05/18 02:13:59;;;;;;;;;;;;;;;22.24;34.37;102665.41;2050761;29;828;-54
2022/05/18 02:15:00;;;;;;;;;;;;;;;22.24;34.44;102657.31;2050702;28;857;-54
2022/05/18 02:16:02;;;;;;;;;;;;;;;22.25;34.08;102661.81;2050759;28;871;-54
2022/05/18 02:17:02;;;;;;;;;;;;;;;22.23;34.14;102663.63;2050707;28;1021;-54
2022/05/18 02:18:02;;;;;;;;;;;;;;;22.23;34.27;102658.22;2050600;29;1950;-54
2022/05/18 02:19:02;;;;;;;;;;;;;;;22.24;34.23;102656.41;2050028;29;935;-54
2022/05/18 02:20:03;;;;;;;;;;;;;;;22.20;34.68;102664.53;2050114;29;852;-53
2022/05/18 02:21:05;;;;;;;;;;;;;;;22.21;34.35;102655.53;2050680;28;1127;-54
2022/05/18 02:22:05;;;;;;;;;;;;;;;22.22;33.92;102661.84;2050664;28;788;-54
2022/05/18 02:23:06;;;;;;;;;;;;;;;22.22;33.93;102653.75;2050671;29;1026;-54
2022/05/18 02:24:06;;;;;;;;;;;;;;;22.22;34.42;102659.16;2050807;28;698;-53
2022/05/18 02:25:07;;;;;;;;;;;;;;;22.19;34.15;102651.09;2050601;29;916;-54
2022/05/18 02:26:17;;;;;;;;;;;;;;;22.18;34.86;102650.16;2050725;29;836;-54
2022/05/18 02:27:17;;;;;;;;;;;;;;;22.21;34.02;102657.34;2050528;28;1114;-54
2022/05/18 02:28:17;;;;;;;;;;;;;;;22.21;33.99;102651.97;2050611;29;974;-54
2022/05/18 02:29:18;;;;;;;;;;;;;;;22.21;33.81;102658.22;2050596;29;982;-54
2022/05/18 02:30:19;;;;;;;;;;;;;;;22.22;34.83;102648.34;2050756;29;1090;-53
2022/05/18 02:31:19;;;;;;;;;;;;;;;22.23;33.92;102657.31;2050651;29;773;-53
2022/05/18 02:32:19;;;;;;;;;;;;;;;22.23;34.09;102655.53;2050560;29;852;-54
2022/05/18 02:33:19;;;;;;;;;;;;;;;22.23;34.79;102647.44;2049958;29;801;-54
2022/05/18 02:34:20;;;;;;;;;;;;;;;22.23;34.00;102647.44;2049984;29;769;-54
2022/05/18 02:35:21;;;;;;;;;;;;;;;22.25;34.70;102642.00;2050679;28;898;-53
2022/05/18 02:36:21;;;;;;;;;;;;;;;22.23;34.65;102647.44;2050606;28;859;-54
2022/05/18 02:37:21;;;;;;;;;;;;;;;22.23;34.43;102652.84;2049760;28;1966;-53
2022/05/18 02:38:21;;;;;;;;;;;;;;;22.22;33.88;102648.34;2050016;29;986;-54
2022/05/18 02:39:21;;;;;;;;;;;;;;;22.22;34.04;102648.34;2049838;29;853;-54
2022/05/18 02:40:22;;;;;;;;;;;;;;;22.24;33.88;102649.22;2050055;29;1050;-54
2022/05/18 02:41:22;;;;;;;;;;;;;;;22.26;33.77;102651.88;2050582;29;991;-54
2022/05/18 02:42:22;;;;;;;;;;;;;;;22.25;34.25;102653.72;2050598;29;923;-54
2022/05/18 02:43:23;;;;;;;;;;;;;;;22.27;33.92;102648.28;2050592;29;1042;-54
2022/05/18 02:44:23;;;;;;;;;;;;;;;22.29;33.93;102654.56;2050589;29;1030;-54
2022/05/18 02:45:23;;;;;;;;;;;;;;;22.28;34.66;102648.28;2050655;29;1023;-54
2022/05/18 02:46:23;;;;;;;;;;;;;;;22.29;34.37;102649.16;2050548;29;820;-54
2022/05/18 02:47:23;;;;;;;;;;;;;;;22.27;34.18;102640.19;2050629;29;769;-54
2022/05/18 02:48:23;;;;;;;;;;;;;;;22.25;34.71;102645.63;2050581;29;849;-54
2022/05/18 02:49:24;;;;;;;;;;;;;;;22.25;33.80;102656.41;2050477;29;1014;-53
2022/05/18 02:50:26;;;;;;;;;;;;;;;22.25;33.80;102659.09;2050557;28;904;-53
2022/05/18 02:51:26;;;;;;;;;;;;;;;22.25;33.92;102651.00;2050553;28;895;-53
2022/05/18 02:52:26;;;;;;;;;;;;;;;22.28;34.13;102647.38;2050557;29;909;-54
2022/05/18 02:53:26;;;;;;;;;;;;;;;22.25;34.51;102653.72;2050509;29;762;-54
2022/05/18 02:57:05;;;;;;;;;;;;;;;22.28;33.79;102650.06;2050619;29;694;-53
2022/05/18 02:58:06;;;;;;;;;;;;;;;22.28;34.50;102647.38;2050511;28;1895;-54
2022/05/18 02:59:07;;;;;;;;;;;;;;;22.26;34.61;102649.19;2050536;29;795;-54
2022/05/18 03:00:07;;;;;;;;;;;;;;;22.26;33.89;102639.31;2050534;29;970;-53
2022/05/18 03:01:12;;;;;;;;;;;;;;;22.24;33.87;102595.25;2050545;28;793;-53
2022/05/18 03:02:13;;;;;;;;;;;;;;;22.25;34.51;102591.63;2050693;28;774;-54
2022/05/18 03:03:13;;;;;;;;;;;;;;;22.26;33.96;102595.19;2050568;29;1035;-54
2022/05/18 03:04:14;;;;;;;;;;;;;;;22.26;34.19;102597.91;2050457;29;1062;-53
2022/05/18 03:05:14;;;;;;;;;;;;;;;22.27;33.94;102592.50;2050553;28;832;-54
2022/05/18 03:06:15;;;;;;;;;;;;;;;22.29;34.42;102587.06;2050465;28;773;-54
2022/05/18 03:07:16;;;;;;;;;;;;;;;22.26;34.28;102598.81;2050531;28;911;-54
2022/05/18 03:08:16;;;;;;;;;;;;;;;22.25;33.94;102680.72;2050499;29;804;-54
2022/05/18 03:09:17;;;;;;;;;;;;;;;22.24;34.49;102646.53;2050437;29;848;-53
2022/05/18 03:10:18;;;;;;;;;;;;;;;22.24;34.27;102646.53;2050440;29;879;-54
2022/05/18 03:11:19;;;;;;;;;;;;;;;22.21;34.24;102631.25;2050410;29;808;-54
2022/05/18 03:12:20;;;;;;;;;;;;;;;22.24;33.91;102643.81;2050639;28;836;-53
2022/05/18 03:13:20;;;;;;;;;;;;;;;22.23;34.20;102631.25;2050466;29;777;-54
2022/05/18 03:14:20;;;;;;;;;;;;;;;22.24;34.15;102637.50;2050462;29;1027;-54
2022/05/18 03:15:20;;;;;;;;;;;;;;;22.25;34.37;102632.13;2050453;29;1007;-54
2022/05/18 03:16:22;;;;;;;;;;;;;;;22.25;34.20;102626.72;2049729;29;880;-54
2022/05/18 03:17:22;;;;;;;;;;;;;;;22.25;34.13;102642.91;2049748;29;1890;-54
2022/05/18 03:18:22;;;;;;;;;;;;;;;22.25;33.90;102642.91;2049872;29;908;-54
2022/05/18 03:19:23;;;;;;;;;;;;;;;22.25;33.83;102640.22;2057743;28;1047;-54
2022/05/18 03:24:20;;;;;;;;;;;;;;;22.20;33.97;102631.28;2050460;29;670;-54
2022/05/18 03:25:21;;;;;;;;;;;;;;;22.21;34.01;102644.75;2050453;28;781;-53
2022/05/18 03:26:23;;;;;;;;;;;;;;;22.20;34.18;102642.94;2050418;29;805;-53
2022/05/18 03:27:23;;;;;;;;;;;;;;;22.21;34.27;102643.84;2050219;28;1641;-53
2022/05/18 03:28:23;;;;;;;;;;;;;;;22.23;34.38;102644.75;2050401;29;900;-54
2022/05/18 03:29:24;;;;;;;;;;;;;;;22.23;34.09;102647.44;2050453;29;986;-53
2022/05/18 03:30:24;;;;;;;;;;;;;;;22.23;34.74;102644.75;2050439;29;862;-53
2022/05/18 03:31:25;;;;;;;;;;;;;;;22.22;34.65;102645.66;2050368;29;1037;-53
2022/05/18 03:32:25;;;;;;;;;;;;;;;22.22;33.94;102632.16;2050415;28;938;-54
2022/05/18 03:33:26;;;;;;;;;;;;;;;22.21;34.37;102643.84;2050344;29;744;-54
2022/05/18 03:34:26;;;;;;;;;;;;;;;22.20;34.30;102650.16;2050404;28;1017;-54
2022/05/18 03:35:26;;;;;;;;;;;;;;;22.18;34.03;102639.38;2050408;29;950;-54
2022/05/18 03:36:27;;;;;;;;;;;;;;;22.21;34.65;102643.84;2050384;29;808;-54
2022/05/18 03:37:27;;;;;;;;;;;;;;;22.19;34.41;102643.84;2050318;28;1918;-54
2022/05/18 03:38:27;;;;;;;;;;;;;;;22.18;34.21;102646.59;2050392;29;864;-54
2022/05/18 03:39:27;;;;;;;;;;;;;;;22.15;33.83;102642.09;2049822;29;959;-54
2022/05/18 03:40:27;;;;;;;;;;;;;;;22.19;34.03;102651.97;2049809;29;922;-54
2022/05/18 03:41:28;;;;;;;;;;;;;;;22.19;33.94;102642.97;2050344;29;982;-53
2022/05/18 03:42:28;;;;;;;;;;;;;;;22.21;34.78;102642.03;2050322;29;824;-54
2022/05/18 03:43:29;;;;;;;;;;;;;;;22.22;34.07;102645.66;2050274;29;913;-54
2022/05/18 03:44:29;;;;;;;;;;;;;;;22.21;34.04;102642.03;2050474;28;836;-54
2022/05/18 03:45:29;;;;;;;;;;;;;;;22.21;33.97;102646.56;2050316;29;844;-53
2022/05/18 03:46:29;;;;;;;;;;;;;;;22.19;34.83;102645.69;2050358;29;915;-53
2022/05/18 03:47:30;;;;;;;;;;;;;;;22.22;34.02;102645.66;2050351;29;859;-54
2022/05/18 03:48:30;;;;;;;;;;;;;;;22.21;34.17;102641.16;2050429;29;793;-54
2022/05/18 03:49:31;;;;;;;;;;;;;;;22.21;34.66;102647.44;2050376;28;820;-54
2022/05/18 03:50:31;;;;;;;;;;;;;;;22.20;34.59;102640.25;2050320;29;762;-54
2022/05/18 03:51:31;;;;;;;;;;;;;;;22.22;34.07;102645.66;2050470;28;979;-53
2022/05/18 03:52:31;;;;;;;;;;;;;;;22.21;34.23;102650.13;2051835;29;837;-53
2022/05/18 03:53:32;;;;;;;;;;;;;;;22.20;34.89;102640.25;2051762;29;840;-54
2022/05/18 03:54:32;;;;;;;;;;;;;;;22.21;33.80;102644.75;2051811;28;942;-54
2022/05/18 03:55:33;;;;;;;;;;;;;;;22.23;33.93;102635.72;2051785;29;872;-53
2022/05/18 03:56:33;;;;;;;;;;;;;;;22.23;34.10;102641.13;2051794;28;872;-53
2022/05/18 03:57:34;;;;;;;;;;;;;;;22.24;34.31;102642.91;2051681;28;1895;-53
2022/05/18 03:58:34;;;;;;;;;;;;;;;22.23;34.78;102642.03;2051693;29;781;-54
2022/05/18 03:59:34;;;;;;;;;;;;;;;22.23;33.94;102638.44;2051765;28;1033;-53
2022/05/18 04:00:35;;;;;;;;;;;;;;;22.22;33.94;102653.75;2051718;29;1026;-54
2022/05/18 04:01:35;;;;;;;;;;;;;;;22.64;34.05;102635.22;2051741;28;1002;-54
2022/05/18 04:02:36;;;;;;;;;;;;;;;23.50;31.78;102645.66;2051694;29;878;-54
2022/05/18 04:03:37;;;;;;;;;;;;;;;24.02;31.26;102642.91;2051696;29;911;-53
2022/05/18 04:04:38;;;;;;;;;;;;;;;24.44;30.08;102636.63;2051735;28;1095;-52
2022/05/18 04:05:40;;;;;;;;;;;;;;;24.71;29.64;102635.13;2051664;29;754;-52
2022/05/18 04:06:40;;;;;;;;;;;;;;;25.08;29.29;102630.66;2051742;28;856;-54
2022/05/18 04:07:40;;;;;;;;;;;;;;;25.35;28.83;102632.72;2051676;29;979;-54
2022/05/18 04:08:40;;;;;;;;;;;;;;;25.60;28.10;102638.44;2051690;29;982;-53
2022/05/18 04:09:40;;;;;;;;;;;;;;;25.66;28.53;102631.97;2051706;29;987;-52
2022/05/18 04:10:41;;;;;;;;;;;;;;;25.73;28.14;102631.72;2051620;29;1022;-53
2022/05/18 04:11:41;;;;;;;;;;;;;;;25.94;27.86;102626.66;2051688;29;801;-53
2022/05/18 04:12:41;;;;;;;;;;;;;;;26.23;27.43;102626.75;2051627;29;1022;-53
2022/05/18 04:13:42;;;;;;;;;;;;;;;26.29;26.81;102627.47;2051671;28;983;-53
2022/05/18 04:14:42;;;;;;;;;;;;;;;26.23;26.93;102626.75;2051643;29;830;-53
2022/05/18 04:15:42;;;;;;;;;;;;;;;26.51;26.68;102609.59;2051614;29;841;-53
2022/05/18 04:16:44;;;;;;;;;;;;;;;26.63;26.43;102625.53;2051611;29;1045;-53
2022/05/18 04:17:45;;;;;;;;;;;;;;;26.55;26.76;102635.75;2051557;29;1962;-53
2022/05/18 04:18:45;;;;;;;;;;;;;;;26.67;26.97;102629.94;2051630;28;990;-53
2022/05/18 04:19:45;;;;;;;;;;;;;;;26.73;26.71;102627.03;2051572;29;871;-54
2022/05/18 04:20:46;;;;;;;;;;;;;;;26.74;26.27;102626.09;2051521;29;1002;-53
2022/05/18 04:21:46;;;;;;;;;;;;;;;26.77;26.82;102625.13;2051598;29;812;-53
2022/05/18 04:22:46;;;;;;;;;;;;;;;27.06;25.86;102629.63;2051570;29;868;-53
2022/05/18 04:23:47;;;;;;;;;;;;;;;27.23;25.81;102617.28;2051536;28;1191;-54
2022/05/18 04:24:47;;;;;;;;;;;;;;;27.13;26.18;102619.44;2051480;29;789;-53
2022/05/18 04:25:47;;;;;;;;;;;;;;;27.19;26.06;102619.22;2051524;29;979;-54
2022/05/18 04:26:47;;;;;;;;;;;;;;;27.31;25.49;102622.47;2051455;29;1041;-53
2022/05/18 04:27:47;;;;;;;;;;;;;;;27.22;25.85;102623.66;2051565;29;805;-53
2022/05/18 04:28:48;;;;;;;;;;;;;;;27.48;25.51;102619.19;2051536;29;1019;-54
2022/05/18 04:29:48;;;;;;;;;;;;;;;27.72;24.91;102621.97;2051493;29;724;-54
2022/05/18 04:30:48;;;;;;;;;;;;;;;27.54;25.51;102623.50;2050805;29;856;-53
2022/05/18 04:31:48;;;;;;;;;;;;;;;27.55;25.45;102623.47;2050938;29;990;-54
2022/05/18 04:32:49;;;;;;;;;;;;;;;27.89;24.73;102624.09;2050847;29;976;-56
2022/05/18 04:33:49;;;;;;;;;;;;;;;27.75;25.33;102619.13;2050878;29;800;-53
2022/05/18 04:34:50;;;;;;;;;;;;;;;27.87;24.96;102626.84;2051441;29;911;-53
2022/05/18 04:35:50;;;;;;;;;;;;;;;27.92;24.59;102622.13;2051446;28;923;-53
2022/05/18 04:36:51;;;;;;;;;;;;;;;27.98;24.84;102625.56;2051514;29;801;-53
2022/05/18 04:37:51;;;;;;;;;;;;;;;28.13;24.50;102615.97;2051302;28;1970;-54
2022/05/18 04:38:51;;;;;;;;;;;;;;;28.08;24.30;102621.56;2051487;28;979;-53
2022/05/18 04:39:51;;;;;;;;;;;;;;;28.18;24.28;102620.31;2051555;29;706;-53
2022/05/18 04:40:52;;;;;;;;;;;;;;;28.11;24.18;102616.88;2051417;29;811;-53
2022/05/18 04:41:52;;;;;;;;;;;;;;;28.05;24.29;102621.69;2051397;29;896;-54
2022/05/18 04:42:52;;;;;;;;;;;;;;;28.05;25.02;102619.81;2051386;29;1049;-54
2022/05/18 04:43:52;;;;;;;;;;;;;;;27.96;25.01;102621.06;2051406;29;1212;-53
2022/05/18 04:44:52;;;;;;;;;;;;;;;28.15;24.72;102617.69;2051441;29;761;-53
2022/05/18 04:45:52;;;;;;;;;;;;;;;28.33;24.28;102612.47;2051375;29;833;-54
2022/05/18 04:46:55;;;;;;;;;;;;;;;28.37;23.91;102619.56;2051355;29;774;-54
2022/05/18 04:47:55;;;;;;;;;;;;;;;28.23;24.24;102618.28;2051395;28;807;-54
2022/05/18 04:48:55;;;;;;;;;;;;;;;28.24;24.84;102614.63;2051409;29;832;-53
2022/05/18 04:49:56;;;;;;;;;;;;;;;28.43;23.87;102615.72;2051499;29;766;-54
2022/05/18 04:50:56;;;;;;;;;;;;;;;28.59;23.67;102614.16;2051313;28;1002;-54
2022/05/18 04:51:56;;;;;;;;;;;;;;;28.72;23.86;102617.28;2051447;29;912;-54
2022/05/18 04:52:56;;;;;;;;;;;;;;;28.77;23.99;102612.56;2051349;28;1049;-53
2022/05/18 04:53:57;;;;;;;;;;;;;;;28.69;23.64;102610.09;2051340;29;840;-53
2022/05/18 04:54:57;;;;;;;;;;;;;;;28.74;23.59;102612.66;2051349;28;958;-53
2022/05/18 04:55:57;;;;;;;;;;;;;;;28.78;23.59;102606.16;2051271;29;1030;-53
2022/05/18 04:56:57;;;;;;;;;;;;;;;28.70;24.06;102608.28;2051273;29;1034;-53
2022/05/18 04:58:00;;;;;;;;;;;;;;;28.70;23.78;102605.56;2051176;29;1903;-54
2022/05/18 04:59:00;;;;;;;;;;;;;;;28.89;23.63;102610.25;2051321;28;855;-53
2022/05/18 05:00:00;;;;;;;;;;;;;;;28.89;23.50;102604.81;2051248;29;904;-54
2022/05/18 05:01:03;;;;;;;;;;;;;;;28.95;23.67;102610.00;2050596;29;1183;-53
2022/05/18 05:02:04;;;;;;;;;;;;;;;29.05;23.79;102608.69;2050748;29;971;-54
2022/05/18 05:03:05;;;;;;;;;;;;;;;29.11;23.45;102615.72;2050717;28;849;-53
2022/05/18 05:04:09;;;;;;;;;;;;;;;29.09;23.36;102602.13;2050849;29;768;-54
2022/05/18 05:05:10;;;;;;;;;;;;;;;29.03;23.33;102613.31;2051371;28;812;-54
2022/05/18 05:06:11;;;;;;;;;;;;;;;29.17;23.79;102609.13;2051183;28;986;-54
2022/05/18 05:07:11;;;;;;;;;;;;;;;29.28;23.18;102609.53;2051247;29;805;-54
2022/05/18 05:08:11;;;;;;;;;;;;;;;29.00;23.41;102610.72;2051231;28;958;-54
2022/05/18 05:09:12;;;;;;;;;;;;;;;29.10;23.57;102612.09;2051352;29;749;-54
2022/05/18 05:10:12;;;;;;;;;;;;;;;29.11;23.37;102605.69;2051214;28;899;-54
2022/05/18 05:11:13;;;;;;;;;;;;;;;29.07;22.99;102598.59;2051222;29;975;-54
2022/05/18 05:12:13;;;;;;;;;;;;;;;29.18;23.35;102600.84;2051184;29;770;-54
2022/05/18 05:13:13;;;;;;;;;;;;;;;29.19;23.54;102599.03;2051177;29;1053;-54
2022/05/18 05:14:13;;;;;;;;;;;;;;;29.13;23.16;102594.72;2051173;29;1027;-53
2022/05/18 05:15:14;;;;;;;;;;;;;;;29.28;23.43;102590.44;2051373;28;752;-54
2022/05/18 05:16:14;;;;;;;;;;;;;;;29.36;23.10;102599.19;2051229;28;975;-53
2022/05/18 05:17:14;;;;;;;;;;;;;;;29.48;22.94;102595.06;2051117;29;1026;-54
2022/05/18 05:18:14;;;;;;;;;;;;;;;29.35;23.37;102596.50;2051069;29;1890;-54
2022/05/18 05:19:15;;;;;;;;;;;;;;;29.34;22.94;102592.00;2051159;29;900;-54
2022/05/18 05:20:15;;;;;;;;;;;;;;;29.29;23.47;102592.22;2051313;28;777;-54
2022/05/18 05:21:15;;;;;;;;;;;;;;;29.40;22.78;102586.31;2051147;29;777;-54
2022/05/18 05:22:15;;;;;;;;;;;;;;;29.44;23.23;102588.81;2051099;29;768;-54
2022/05/18 05:23:15;;;;;;;;;;;;;;;29.40;23.18;102586.31;2051084;29;990;-54
2022/05/18 05:24:16;;;;;;;;;;;;;;;29.38;22.98;102594.59;2051085;29;1041;-54
2022/05/18 05:25:16;;;;;;;;;;;;;;;29.48;23.39;102588.69;2051120;28;863;-54
2022/05/18 05:26:17;;;;;;;;;;;;;;;29.44;22.85;102580.63;2051144;28;875;-54
2022/05/18 05:27:17;;;;;;;;;;;;;;;29.41;23.77;102583.53;2050956;29;1297;-54
2022/05/18 05:28:17;;;;;;;;;;;;;;;29.51;22.70;102583.09;2051071;29;812;-54